Merom, Indiana
Current Conditions -  °F | °C
As of 2:55 PM on Sunday 23 Nov 2014 (Local Time) from KRSV Reporting Station
Moderate Rain Moderate Rain  
Wind Chill: 52°   Ceiling: 500
Heat Index: 52°   Visibility: 3mi
Dew Point: 51°   Wind: 10mph
Humidity: 97%   Direction: 130°SE
Pressure: 29.54"   Gusts: NA
Location:  39.06°N, 87.57°W
Report Text: KRSV 231955Z AUTO 13009KT 3SM RA BKN005 BKN017 OVC022 11/11 A2954 RMK AO2 P0006 T01100105
Loading
Personal Weather Stations






























Interactive Weather Map New forecast layout! Learn more

10-Day Weather Forecast

Advertisements
Track Severe Weather on mobile